createdAt,value
2017-12-15T00:00:52.762Z,21.6
2017-12-15T00:01:54.672Z,21.5
2017-12-15T00:02:56.293Z,21.5
2017-12-15T00:03:57.611Z,21.7
2017-12-15T00:04:59.229Z,21.5
2017-12-15T00:06:00.560Z,21.6
2017-12-15T00:07:01.598Z,21.5
2017-12-15T00:08:02.918Z,21.5
2017-12-15T00:09:04.817Z,21.6
2017-12-15T00:10:06.157Z,21.6
2017-12-15T00:11:08.083Z,21.6
2017-12-15T00:12:09.701Z,21.6
2017-12-15T00:13:11.603Z,21.6
2017-12-15T00:14:13.200Z,21.5
2017-12-15T00:15:14.799Z,21.6
2017-12-15T00:16:16.422Z,21.6
2017-12-15T00:17:18.319Z,21.6
2017-12-15T00:18:19.963Z,21.6
2017-12-15T00:19:21.861Z,21.7
2017-12-15T00:20:23.181Z,21.6
2017-12-15T00:21:24.802Z,21.6
2017-12-15T00:22:26.727Z,21.5
2017-12-15T00:23:28.649Z,21.6
2017-12-15T00:24:30.271Z,21.6
2017-12-15T00:25:31.891Z,21.6
2017-12-15T00:26:33.255Z,21.6
2017-12-15T00:27:34.875Z,21.6
2017-12-15T00:28:36.219Z,21.5
2017-12-15T00:29:37.836Z,21.6
2017-12-15T00:30:39.732Z,21.6
2017-12-15T00:31:41.352Z,21.6
2017-12-15T00:32:42.695Z,21.6
2017-12-15T00:33:44.297Z,21.6
2017-12-15T00:34:45.643Z,21.6
2017-12-15T00:35:47.537Z,21.6
2017-12-15T00:36:49.157Z,21.5
2017-12-15T00:37:51.055Z,21.6
2017-12-15T00:38:52.653Z,21.6
2017-12-15T00:39:54.291Z,21.6
2017-12-15T00:40:55.907Z,21.6
2017-12-15T00:41:56.949Z,21.6
2017-12-15T00:42:58.889Z,21.7
2017-12-15T00:44:00.230Z,21.6
2017-12-15T00:45:01.548Z,21.5
2017-12-15T00:46:02.869Z,21.5
2017-12-15T00:47:04.532Z,21.6
2017-12-15T00:48:06.168Z,21.6
2017-12-15T00:49:07.753Z,21.6
2017-12-15T00:50:09.650Z,21.6
2017-12-15T00:51:11.271Z,21.6
2017-12-15T00:52:13.184Z,21.6
2017-12-15T00:53:15.080Z,21.5
2017-12-15T00:54:16.976Z,21.6
2017-12-15T00:55:18.594Z,21.6
2017-12-15T00:56:20.218Z,21.6
2017-12-15T00:57:22.115Z,21.6
2017-12-15T00:58:24.071Z,21.6
2017-12-15T00:59:25.969Z,21.6
2017-12-15T01:00:27.872Z,21.5
2017-12-15T01:01:29.763Z,21.6
2017-12-15T01:02:31.658Z,21.6
2017-12-15T01:03:33.558Z,21.6
2017-12-15T01:04:34.604Z,21.6
2017-12-15T01:05:36.228Z,21.6
2017-12-15T01:06:38.127Z,21.5
2017-12-15T01:07:39.468Z,21.6
2017-12-15T01:08:41.376Z,21.6
2017-12-15T01:09:42.723Z,21.6
2017-12-15T01:10:44.618Z,21.6
2017-12-15T01:11:46.214Z,21.6
2017-12-15T01:12:47.836Z,21.6
2017-12-15T01:13:49.460Z,21.5
2017-12-15T01:14:51.358Z,21.6
2017-12-15T01:15:53.264Z,21.6
2017-12-15T01:16:54.882Z,21.5
2017-12-15T01:17:56.785Z,21.6
2017-12-15T01:18:58.406Z,21.6
2017-12-15T01:20:00.025Z,21.6
2017-12-15T01:21:01.647Z,21.6
2017-12-15T01:22:03.545Z,21.5
2017-12-15T01:23:05.455Z,21.6
2017-12-15T01:24:07.074Z,21.5
2017-12-15T01:25:08.973Z,21.5
2017-12-15T01:26:10.036Z,21.5
2017-12-15T01:27:11.932Z,21.6
2017-12-15T01:28:13.828Z,21.5
2017-12-15T01:29:15.158Z,21.6
2017-12-15T01:30:16.782Z,21.6
2017-12-15T01:31:18.683Z,21.6
2017-12-15T01:32:20.279Z,21.6
2017-12-15T01:33:21.655Z,21.6
2017-12-15T01:34:23.632Z,21.6
2017-12-15T01:35:25.251Z,21.6
2017-12-15T01:36:26.571Z,21.5
2017-12-15T01:37:27.913Z,21.6
2017-12-15T01:38:29.809Z,21.6
2017-12-15T01:39:31.727Z,21.6
2017-12-15T01:40:33.630Z,21.5
2017-12-15T01:41:35.246Z,21.5
2017-12-15T01:42:36.842Z,21.6
2017-12-15T01:43:38.460Z,21.6
2017-12-15T01:44:40.357Z,21.6
2017-12-15T01:45:42.258Z,21.5
2017-12-15T01:46:43.878Z,21.6
2017-12-15T01:47:45.480Z,21.6
2017-12-15T01:48:47.102Z,21.5
2017-12-15T01:49:49.009Z,21.6
2017-12-15T01:50:50.328Z,21.6
2017-12-15T01:51:51.965Z,21.5
2017-12-15T01:52:53.584Z,21.6
2017-12-15T01:53:55.488Z,21.6
2017-12-15T01:54:57.101Z,21.6
2017-12-15T01:55:59.000Z,21.5
2017-12-15T01:57:00.331Z,21.6
2017-12-15T01:58:02.236Z,21.6
2017-12-15T01:59:03.576Z,21.6
2017-12-15T02:00:05.177Z,21.6
2017-12-15T02:01:07.081Z,21.6
2017-12-15T02:02:08.443Z,21.5
2017-12-15T02:03:10.340Z,21.5
2017-12-15T02:04:11.963Z,21.6
2017-12-15T02:05:13.580Z,21.6
2017-12-15T02:06:15.480Z,21.5
2017-12-15T02:07:17.100Z,21.5
2017-12-15T02:08:18.422Z,21.6
2017-12-15T02:09:19.760Z,21.6
2017-12-15T02:10:21.382Z,21.5
2017-12-15T02:11:23.006Z,21.5
2017-12-15T02:12:24.901Z,21.6
2017-12-15T02:13:26.523Z,21.5
2017-12-15T02:14:28.147Z,21.5
2017-12-15T02:15:29.769Z,21.5
2017-12-15T02:16:31.664Z,21.6
2017-12-15T02:17:33.282Z,21.5
2017-12-15T02:18:34.636Z,21.5
2017-12-15T02:19:35.977Z,21.6
2017-12-15T02:20:37.904Z,21.6
2017-12-15T02:21:39.505Z,21.5
2017-12-15T02:22:41.130Z,21.6
2017-12-15T02:23:43.020Z,21.6
2017-12-15T02:24:44.089Z,21.6
2017-12-15T02:25:45.407Z,21.6
2017-12-15T02:26:47.031Z,21.5
2017-12-15T02:27:48.925Z,21.6
2017-12-15T02:28:50.545Z,21.6
2017-12-15T02:29:51.887Z,21.5
2017-12-15T02:30:53.788Z,21.6
2017-12-15T02:31:55.413Z,21.6
2017-12-15T02:32:57.033Z,21.6
2017-12-15T02:33:58.931Z,21.6
2017-12-15T02:35:00.597Z,21.5
2017-12-15T02:36:02.495Z,21.6
2017-12-15T02:37:04.110Z,21.5
2017-12-15T02:38:06.055Z,21.6
2017-12-15T02:39:07.951Z,21.5
2017-12-15T02:40:09.854Z,21.6
2017-12-15T02:41:11.192Z,21.6
2017-12-15T02:42:12.539Z,21.6
2017-12-15T02:43:13.911Z,21.6
2017-12-15T02:44:15.537Z,21.6
2017-12-15T02:45:16.581Z,21.6
2017-12-15T02:46:18.205Z,21.6
2017-12-15T02:47:19.804Z,21.5
2017-12-15T02:48:21.753Z,21.5
2017-12-15T02:49:23.319Z,21.5
2017-12-15T02:50:25.216Z,21.5
2017-12-15T02:51:26.539Z,21.6
2017-12-15T02:52:28.159Z,21.5
2017-12-15T02:53:30.058Z,21.5
2017-12-15T02:54:31.376Z,21.6
2017-12-15T02:55:33.278Z,21.5
2017-12-15T02:56:35.169Z,21.6
2017-12-15T02:57:36.490Z,21.5
2017-12-15T02:58:38.109Z,21.6
2017-12-15T02:59:39.732Z,21.6
2017-12-15T03:00:41.078Z,21.6
2017-12-15T03:01:42.679Z,21.5
2017-12-15T03:02:43.999Z,21.5
2017-12-15T03:03:45.324Z,21.5
2017-12-15T03:04:47.223Z,21.6
2017-12-15T03:05:48.860Z,21.5
2017-12-15T03:06:50.182Z,21.5
2017-12-15T03:07:52.079Z,21.5
2017-12-15T03:08:53.977Z,21.4
2017-12-15T03:09:55.876Z,21.6
2017-12-15T03:10:57.224Z,21.5
2017-12-15T03:11:59.121Z,21.6
2017-12-15T03:13:00.440Z,21.5
2017-12-15T03:14:02.067Z,21.5
2017-12-15T03:15:03.965Z,21.5
2017-12-15T03:16:05.584Z,21.5
2017-12-15T03:17:07.483Z,21.5
2017-12-15T03:18:09.176Z,21.5
2017-12-15T03:19:10.796Z,21.6
2017-12-15T03:20:12.395Z,21.6
2017-12-15T03:21:13.719Z,21.5
2017-12-15T03:22:15.337Z,21.6
2017-12-15T03:23:16.966Z,21.5
2017-12-15T03:24:18.586Z,21.5
2017-12-15T03:25:20.220Z,21.5
2017-12-15T03:26:21.555Z,21.5
2017-12-15T03:27:23.451Z,21.5
2017-12-15T03:28:25.346Z,21.5
2017-12-15T03:29:26.676Z,21.5
2017-12-15T03:30:28.014Z,21.5
2017-12-15T03:31:29.678Z,21.6
2017-12-15T03:32:31.011Z,21.6
2017-12-15T03:33:32.644Z,21.5
2017-12-15T03:34:34.540Z,21.5
2017-12-15T03:35:36.446Z,21.5
2017-12-15T03:36:38.059Z,21.5
2017-12-15T03:37:39.958Z,21.5
2017-12-15T03:38:41.282Z,21.5
2017-12-15T03:39:42.610Z,21.5
2017-12-15T03:40:43.934Z,21.5
2017-12-15T03:41:45.530Z,21.5
2017-12-15T03:42:47.151Z,21.5
2017-12-15T03:43:48.496Z,21.5
2017-12-15T03:44:50.121Z,21.5
2017-12-15T03:45:51.741Z,21.5
2017-12-15T03:46:53.364Z,21.5
2017-12-15T03:47:54.983Z,21.4
2017-12-15T03:48:56.580Z,21.6
2017-12-15T03:49:58.179Z,21.5
2017-12-15T03:50:59.800Z,21.5
2017-12-15T03:52:01.438Z,21.5
2017-12-15T03:53:03.334Z,21.5
2017-12-15T03:54:04.942Z,21.5
2017-12-15T03:55:06.554Z,21.4
2017-12-15T03:56:08.173Z,21.4
2017-12-15T03:57:10.072Z,21.5
2017-12-15T03:58:11.695Z,21.5
2017-12-15T03:59:13.590Z,21.5
2017-12-15T04:00:15.490Z,21.5
2017-12-15T04:01:17.395Z,21.5
2017-12-15T04:02:19.290Z,21.4
2017-12-15T04:03:20.891Z,21.5
2017-12-15T04:04:22.233Z,21.5
2017-12-15T04:05:24.130Z,21.4
2017-12-15T04:06:26.028Z,21.4
2017-12-15T04:07:27.644Z,21.4
2017-12-15T04:08:29.268Z,21.5
2017-12-15T04:09:30.313Z,21.5
2017-12-15T04:10:32.208Z,21.5
2017-12-15T04:11:33.804Z,21.4
2017-12-15T04:12:35.126Z,21.5
2017-12-15T04:13:36.171Z,21.4
2017-12-15T04:14:38.067Z,21.5
2017-12-15T04:15:39.687Z,21.4
2017-12-15T04:16:41.307Z,21.4
2017-12-15T04:17:42.942Z,21.4
2017-12-15T04:18:43.974Z,21.4
2017-12-15T04:19:45.569Z,21.4
2017-12-15T04:20:47.190Z,21.4
2017-12-15T04:21:48.533Z,21.4
2017-12-15T04:22:49.881Z,21.4
2017-12-15T04:23:51.505Z,21.4
2017-12-15T04:24:53.128Z,21.4
2017-12-15T04:25:54.746Z,21.4
2017-12-15T04:26:56.368Z,21.4
2017-12-15T04:27:57.966Z,21.4
2017-12-15T04:28:59.029Z,21.5
2017-12-15T04:30:00.351Z,21.4
2017-12-15T04:31:01.691Z,21.4
2017-12-15T04:32:03.289Z,21.4
2017-12-15T04:33:04.890Z,21.4
2017-12-15T04:34:06.236Z,21.4
2017-12-15T04:35:07.854Z,21.4
2017-12-15T04:36:09.476Z,21.4
2017-12-15T04:37:10.815Z,21.4
2017-12-15T04:38:12.710Z,21.4
2017-12-15T04:39:14.332Z,21.5
2017-12-15T04:40:15.954Z,21.4
2017-12-15T04:41:17.336Z,21.4
2017-12-15T04:42:19.227Z,21.4
2017-12-15T04:43:21.131Z,21.4
2017-12-15T04:44:22.727Z,21.5
2017-12-15T04:45:24.073Z,21.5
2017-12-15T04:46:25.973Z,21.4
2017-12-15T04:47:27.873Z,21.5
2017-12-15T04:48:29.772Z,21.5
2017-12-15T04:49:31.672Z,21.4
2017-12-15T04:50:33.016Z,21.4
2017-12-15T04:51:34.913Z,21.5
2017-12-15T04:52:36.261Z,21.4
2017-12-15T04:53:37.879Z,21.4
2017-12-15T04:54:39.778Z,21.4
2017-12-15T04:55:41.398Z,21.3
2017-12-15T04:56:43.018Z,21.4
2017-12-15T04:57:44.641Z,21.4
2017-12-15T04:58:46.547Z,21.4
2017-12-15T04:59:48.167Z,21.4
2017-12-15T05:00:50.066Z,21.5
2017-12-15T05:01:51.963Z,21.4
2017-12-15T05:02:53.583Z,21.4
2017-12-15T05:03:55.474Z,21.4
2017-12-15T05:04:57.102Z,21.4
2017-12-15T05:05:58.999Z,21.4
2017-12-15T05:07:00.619Z,21.3
2017-12-15T05:08:01.945Z,21.4
2017-12-15T05:09:03.565Z,21.3
2017-12-15T05:10:05.466Z,21.5
2017-12-15T05:11:07.088Z,21.3
2017-12-15T05:12:08.711Z,21.4
2017-12-15T05:13:10.050Z,21.4
2017-12-15T05:14:11.672Z,21.4
2017-12-15T05:15:13.570Z,21.4
2017-12-15T05:16:15.188Z,21.4
2017-12-15T05:17:16.531Z,21.4
2017-12-15T05:18:17.884Z,21.4
2017-12-15T05:19:19.490Z,21.4
2017-12-15T05:20:21.104Z,21.3
2017-12-15T05:21:22.724Z,21.4
2017-12-15T05:22:24.343Z,21.3
2017-12-15T05:23:26.242Z,21.4
2017-12-15T05:24:27.563Z,21.4
2017-12-15T05:25:29.186Z,21.3
2017-12-15T05:26:31.080Z,21.5
2017-12-15T05:27:32.685Z,21.4
2017-12-15T05:28:33.734Z,21.4
2017-12-15T05:29:35.331Z,21.4
2017-12-15T05:30:36.679Z,21.4
2017-12-15T05:31:38.575Z,21.3
2017-12-15T05:32:40.204Z,21.4
2017-12-15T05:33:41.822Z,21.4
2017-12-15T05:34:43.718Z,21.4
2017-12-15T05:35:45.316Z,21.4
2017-12-15T05:36:46.656Z,21.4
2017-12-15T05:37:48.559Z,21.4
2017-12-15T05:38:50.596Z,21.4
2017-12-15T05:39:52.190Z,21.3
2017-12-15T05:40:54.086Z,21.4
2017-12-15T05:41:55.985Z,21.4
2017-12-15T05:42:57.883Z,21.4
2017-12-15T05:43:59.502Z,21.3
2017-12-15T05:45:01.401Z,21.4
2017-12-15T05:46:02.747Z,21.4
2017-12-15T05:47:04.399Z,21.4
2017-12-15T05:48:06.294Z,21.4
2017-12-15T05:49:08.191Z,21.4
2017-12-15T05:50:09.812Z,21.4
2017-12-15T05:51:11.428Z,21.4
2017-12-15T05:52:12.748Z,21.4
2017-12-15T05:53:14.072Z,21.4
2017-12-15T05:54:15.970Z,21.5
2017-12-15T05:55:17.867Z,21.4
2017-12-15T05:56:19.189Z,21.4
2017-12-15T05:57:20.510Z,21.3
2017-12-15T05:58:22.409Z,21.4
2017-12-15T05:59:24.304Z,21.4
2017-12-15T06:00:26.211Z,21.4
2017-12-15T06:01:27.525Z,21.4
2017-12-15T06:02:28.844Z,21.4
2017-12-15T06:03:30.448Z,21.4
2017-12-15T06:04:32.043Z,21.4
2017-12-15T06:05:33.691Z,21.4
2017-12-15T06:06:35.311Z,21.5
2017-12-15T06:07:36.654Z,21.5
2017-12-15T06:08:38.270Z,21.4
2017-12-15T06:09:39.898Z,21.5
2017-12-15T06:10:41.790Z,21.4
2017-12-15T06:11:43.412Z,21.4
2017-12-15T06:12:45.034Z,21.4
2017-12-15T06:13:46.653Z,21.4
2017-12-15T06:14:47.983Z,21.4
2017-12-15T06:15:49.883Z,21.4
2017-12-15T06:16:51.785Z,21.4
2017-12-15T06:17:53.400Z,21.5
2017-12-15T06:18:55.295Z,21.4
2017-12-15T06:19:57.193Z,21.4
2017-12-15T06:20:58.516Z,21.4
2017-12-15T06:21:59.860Z,21.4
2017-12-15T06:23:01.496Z,21.4
2017-12-15T06:24:03.390Z,21.4
2017-12-15T06:25:05.011Z,21.4
2017-12-15T06:26:06.911Z,21.4
2017-12-15T06:27:08.526Z,21.4
2017-12-15T06:28:10.447Z,21.4
2017-12-15T06:29:12.044Z,21.4
2017-12-15T06:30:13.383Z,21.4
2017-12-15T06:31:14.150Z,21.5
2017-12-15T06:32:15.812Z,21.4
2017-12-15T06:33:16.860Z,21.4
2017-12-15T06:34:18.188Z,21.4
2017-12-15T06:35:20.086Z,21.4
2017-12-15T06:36:21.701Z,21.5
2017-12-15T06:37:22.772Z,21.4
2017-12-15T06:38:24.087Z,21.3
2017-12-15T06:39:25.990Z,21.3
2017-12-15T06:40:27.607Z,21.4
2017-12-15T06:41:29.208Z,21.3
2017-12-15T06:42:31.106Z,21.3
2017-12-15T06:43:32.153Z,21.3
2017-12-15T06:44:33.753Z,21.3
2017-12-15T06:45:35.353Z,21.3
2017-12-15T06:46:36.949Z,21.2
2017-12-15T06:47:38.846Z,21.3
2017-12-15T06:48:40.747Z,21.3
2017-12-15T06:49:42.368Z,21.2
2017-12-15T06:50:43.990Z,21.3
2017-12-15T06:51:45.888Z,21.3
2017-12-15T06:52:47.486Z,21.3
2017-12-15T06:53:49.386Z,21.3
2017-12-15T06:54:50.988Z,21.3
2017-12-15T06:55:52.327Z,21.3
2017-12-15T06:56:53.381Z,21.3
2017-12-15T06:57:55.276Z,21.4
2017-12-15T06:58:56.913Z,21.5
2017-12-15T06:59:58.536Z,21.6
2017-12-15T07:01:00.156Z,21.6
2017-12-15T07:02:02.054Z,21.6
2017-12-15T07:03:03.397Z,21.6
2017-12-15T07:04:05.018Z,21.5
2017-12-15T07:05:06.639Z,21.6
2017-12-15T07:06:08.257Z,21.6
2017-12-15T07:07:10.156Z,21.7
2017-12-15T07:08:11.474Z,21.7
2017-12-15T07:09:13.094Z,21.7
2017-12-15T07:10:14.445Z,21.7
2017-12-15T07:11:16.066Z,21.7
2017-12-15T07:12:17.971Z,21.7
2017-12-15T07:13:19.594Z,21.8
2017-12-15T07:14:21.225Z,21.7
2017-12-15T07:15:22.573Z,21.7
2017-12-15T07:16:23.899Z,21.8
2017-12-15T07:17:25.801Z,21.8
2017-12-15T07:18:27.432Z,21.8
2017-12-15T07:19:28.759Z,21.8
2017-12-15T07:20:30.361Z,21.8
2017-12-15T07:21:31.984Z,21.8
2017-12-15T07:22:33.339Z,21.9
2017-12-15T07:23:34.397Z,21.8
2017-12-15T07:24:35.449Z,21.9
2017-12-15T07:25:37.074Z,21.9
2017-12-15T07:26:38.973Z,21.9
2017-12-15T07:27:40.877Z,22
2017-12-15T07:28:42.497Z,21.9
2017-12-15T07:29:44.394Z,22
2017-12-15T07:30:46.296Z,21.9
2017-12-15T07:31:47.916Z,21.9
2017-12-15T07:32:49.814Z,22
2017-12-15T07:33:51.159Z,22
2017-12-15T07:34:52.780Z,22
2017-12-15T07:35:54.452Z,22
2017-12-15T07:36:56.352Z,22.1
2017-12-15T07:37:58.258Z,22.1
2017-12-15T07:38:59.603Z,22.1
2017-12-15T07:40:00.379Z,22.1
2017-12-15T07:41:01.500Z,22.2
2017-12-15T07:42:03.127Z,22.1
2017-12-15T07:43:05.028Z,22.2
2017-12-15T07:44:06.385Z,22.2
2017-12-15T07:45:07.995Z,22.2
2017-12-15T07:46:09.620Z,22.1
2017-12-15T07:47:11.249Z,22.2
2017-12-15T07:48:12.872Z,22.2
2017-12-15T07:49:14.475Z,22.3
2017-12-15T07:50:15.567Z,22.2
2017-12-15T07:51:17.467Z,22.3
2017-12-15T07:52:19.093Z,22.3
2017-12-15T07:53:20.716Z,22.2
2017-12-15T07:54:22.619Z,22.4
2017-12-15T07:55:23.962Z,22.4
2017-12-15T07:56:25.586Z,22.3
2017-12-15T07:57:27.222Z,22.3
2017-12-15T07:58:28.850Z,22.4
2017-12-15T07:59:30.838Z,22.5
2017-12-15T08:00:32.162Z,22.4
2017-12-15T08:01:33.785Z,22.3
2017-12-15T08:02:35.138Z,22.4
2017-12-15T08:03:36.503Z,22.4
2017-12-15T08:04:37.933Z,22.4
2017-12-15T08:05:39.542Z,22.4
2017-12-15T08:06:41.214Z,22.4
2017-12-15T08:07:42.286Z,22.4
2017-12-15T08:08:43.893Z,22.5
2017-12-15T08:09:45.793Z,22.4
2017-12-15T08:10:47.695Z,22.5
2017-12-15T08:11:49.370Z,22.5
2017-12-15T08:12:50.995Z,22.5
2017-12-15T08:13:52.652Z,22.4
2017-12-15T08:14:54.274Z,22.4
2017-12-15T08:15:55.608Z,22.4
2017-12-15T08:16:56.925Z,22.4
2017-12-15T08:17:58.559Z,22.4
2017-12-15T08:19:00.465Z,22.4
2017-12-15T08:20:01.522Z,22.4
2017-12-15T08:21:02.869Z,22.4
2017-12-15T08:22:04.775Z,22.5
2017-12-15T08:23:06.398Z,22.5
2017-12-15T08:24:08.441Z,22.6
2017-12-15T08:25:10.065Z,22.5
2017-12-15T08:26:11.693Z,22.6
2017-12-15T08:27:13.372Z,22.5
2017-12-15T08:28:14.994Z,22.5
2017-12-15T08:29:16.896Z,22.5
2017-12-15T08:30:18.521Z,22.5
2017-12-15T08:31:20.147Z,22.5
2017-12-15T08:32:21.755Z,22.5
2017-12-15T08:33:23.391Z,22.6
2017-12-15T08:34:25.008Z,22.6
2017-12-15T08:35:26.632Z,22.6
2017-12-15T08:36:28.258Z,22.6
2017-12-15T08:37:29.887Z,22.6
2017-12-15T08:38:31.556Z,22.8
2017-12-15T08:39:33.454Z,22.7
2017-12-15T08:40:35.076Z,22.5
2017-12-15T08:41:36.978Z,22.5
2017-12-15T08:42:38.598Z,22.4
2017-12-15T08:43:40.500Z,22.4
2017-12-15T08:44:41.846Z,22.4
2017-12-15T08:45:43.447Z,22.4
2017-12-15T08:46:45.343Z,22.4
2017-12-15T08:47:47.056Z,22.4
2017-12-15T08:48:48.682Z,22.4
2017-12-15T08:49:49.733Z,22.3
2017-12-15T08:50:51.631Z,22.4
2017-12-15T08:51:53.255Z,22.4
2017-12-15T08:52:54.879Z,22.4
2017-12-15T08:53:56.779Z,22.4
2017-12-15T08:54:58.104Z,22.3
2017-12-15T08:56:00.000Z,22.4
2017-12-15T08:57:01.041Z,22.4
2017-12-15T08:58:02.940Z,22.3
2017-12-15T08:59:04.841Z,22.4
2017-12-15T09:00:06.741Z,22.4
2017-12-15T09:01:08.641Z,22.3
2017-12-15T09:02:09.690Z,22.3
2017-12-15T09:03:11.591Z,22.3
2017-12-15T09:04:13.265Z,22.4
2017-12-15T09:05:14.610Z,22.3
2017-12-15T09:06:16.206Z,22.3
2017-12-15T09:07:17.811Z,22.2
2017-12-15T09:08:18.855Z,22.3
2017-12-15T09:09:20.199Z,22.2
2017-12-15T09:10:21.820Z,22.2
2017-12-15T09:11:23.445Z,22.3
2017-12-15T09:12:24.485Z,22.3
2017-12-15T09:13:26.388Z,22.4
2017-12-15T09:14:28.010Z,22.3
2017-12-15T09:15:29.078Z,22.2
2017-12-15T09:16:30.699Z,22.2
2017-12-15T09:17:32.044Z,22.2
2017-12-15T09:18:34.011Z,22.1
2017-12-15T09:19:35.910Z,22.1
2017-12-15T09:20:37.236Z,22.1
2017-12-15T09:21:38.834Z,22.1
2017-12-15T09:22:40.502Z,22.1
2017-12-15T09:23:42.119Z,22.1
2017-12-15T09:24:43.465Z,22.1
2017-12-15T09:25:44.810Z,22
2017-12-15T09:26:46.706Z,22
2017-12-15T09:27:48.051Z,22
2017-12-15T09:28:49.374Z,21.9
2017-12-15T09:29:50.972Z,22.1
2017-12-15T09:30:52.317Z,22.1
2017-12-15T09:31:53.920Z,22.1
2017-12-15T09:32:55.839Z,22
2017-12-15T09:33:57.434Z,22
2017-12-15T09:34:59.055Z,22.1
2017-12-15T09:36:00.685Z,22.1
2017-12-15T09:37:02.630Z,22.1
2017-12-15T09:38:04.536Z,22.1
2017-12-15T09:39:06.138Z,22.1
2017-12-15T09:40:07.757Z,22.1
2017-12-15T09:41:09.357Z,22.1
2017-12-15T09:42:10.957Z,22.1
2017-12-15T09:43:12.587Z,22.1
2017-12-15T09:44:14.485Z,22
2017-12-15T09:45:16.400Z,22
2017-12-15T09:46:17.724Z,22.1
2017-12-15T09:47:19.347Z,22
2017-12-15T09:48:20.673Z,22
2017-12-15T09:49:22.592Z,22
2017-12-15T09:50:24.288Z,22.1
2017-12-15T09:51:25.905Z,22
2017-12-15T09:52:27.804Z,22.1
2017-12-15T09:53:29.145Z,22.1
2017-12-15T09:54:30.764Z,22.1
2017-12-15T09:55:32.665Z,22
2017-12-15T09:56:34.564Z,22
2017-12-15T09:57:36.187Z,22.1
2017-12-15T09:58:37.515Z,22.1
2017-12-15T09:59:38.835Z,22
2017-12-15T10:00:40.791Z,22.1
2017-12-15T10:01:42.403Z,22
2017-12-15T10:02:43.479Z,22.1
2017-12-15T10:03:45.101Z,22.1
2017-12-15T10:04:46.789Z,22.1
2017-12-15T10:05:48.707Z,22.1
2017-12-15T10:06:50.609Z,22
2017-12-15T10:07:51.679Z,22.1
2017-12-15T10:08:53.588Z,21.9
2017-12-15T10:09:54.943Z,22.1
2017-12-15T10:10:56.546Z,22.1
2017-12-15T10:11:57.320Z,22.1
2017-12-15T10:12:59.217Z,22
2017-12-15T10:14:01.154Z,22
2017-12-15T10:15:02.776Z,22.1
2017-12-15T10:16:04.393Z,22
2017-12-15T10:17:05.717Z,22
2017-12-15T10:18:07.341Z,22.1
2017-12-15T10:19:08.995Z,22
2017-12-15T10:20:10.716Z,22
2017-12-15T10:21:12.062Z,22.1
2017-12-15T10:22:13.664Z,22
2017-12-15T10:23:15.289Z,22.1
2017-12-15T10:24:16.907Z,22.1
2017-12-15T10:25:18.531Z,22
2017-12-15T10:26:19.578Z,22.1
2017-12-15T10:27:21.525Z,22.1
2017-12-15T10:28:23.210Z,22
2017-12-15T10:29:24.832Z,22
2017-12-15T10:30:26.156Z,22.1
2017-12-15T10:31:27.752Z,22.1
2017-12-15T10:32:29.377Z,22
2017-12-15T10:33:30.998Z,22.1
2017-12-15T10:34:32.343Z,22.1
2017-12-15T10:35:33.388Z,22.1
2017-12-15T10:36:35.061Z,22
2017-12-15T10:37:36.109Z,22
2017-12-15T10:38:37.713Z,22.1
2017-12-15T10:39:39.054Z,22
2017-12-15T10:40:40.955Z,22.1
2017-12-15T10:41:42.576Z,22
2017-12-15T10:42:43.618Z,22.1
2017-12-15T10:43:45.240Z,22.1
2017-12-15T10:44:46.863Z,22
2017-12-15T10:45:48.811Z,22.1
2017-12-15T10:46:50.713Z,22
2017-12-15T10:47:52.058Z,22.1
2017-12-15T10:48:53.965Z,22
2017-12-15T10:49:55.869Z,22
2017-12-15T10:50:57.488Z,22.1
2017-12-15T10:51:59.485Z,22.1
2017-12-15T10:53:01.385Z,22.1
2017-12-15T10:54:02.783Z,22.1
2017-12-15T10:55:04.404Z,22
2017-12-15T10:56:06.307Z,22
2017-12-15T10:57:07.937Z,22
2017-12-15T10:58:09.280Z,22
2017-12-15T10:59:10.608Z,21.9
2017-12-15T11:00:12.509Z,22
2017-12-15T11:01:13.831Z,22
2017-12-15T11:02:15.454Z,22
2017-12-15T11:03:17.072Z,22
2017-12-15T11:04:18.141Z,22
2017-12-15T11:05:19.760Z,22
2017-12-15T11:06:21.093Z,21.9
2017-12-15T11:07:22.444Z,21.9
2017-12-15T11:08:24.064Z,22
2017-12-15T11:09:25.153Z,22
2017-12-15T11:10:26.500Z,22
2017-12-15T11:11:28.450Z,22
2017-12-15T11:12:30.119Z,22
2017-12-15T11:13:32.017Z,22
2017-12-15T11:14:33.917Z,22
2017-12-15T11:15:35.818Z,22
2017-12-15T11:16:37.816Z,22
2017-12-15T11:17:39.138Z,22
2017-12-15T11:18:40.465Z,21.9
2017-12-15T11:19:41.809Z,22
2017-12-15T11:20:43.135Z,22
2017-12-15T11:21:44.185Z,22
2017-12-15T11:22:45.806Z,22
2017-12-15T11:23:47.414Z,22
2017-12-15T11:24:49.314Z,22
2017-12-15T11:25:50.647Z,21.9
2017-12-15T11:26:52.240Z,21.9
2017-12-15T11:27:53.865Z,22
2017-12-15T11:28:55.486Z,21.9
2017-12-15T11:29:56.833Z,22
2017-12-15T11:30:58.734Z,21.9
2017-12-15T11:32:00.073Z,21.9
2017-12-15T11:33:01.721Z,22
2017-12-15T11:34:03.622Z,22
2017-12-15T11:35:05.243Z,21.9
2017-12-15T11:36:06.571Z,21.9
2017-12-15T11:37:08.471Z,21.9
2017-12-15T11:38:09.525Z,21.9
2017-12-15T11:39:11.426Z,21.9
2017-12-15T11:40:13.059Z,21.9
2017-12-15T11:41:14.955Z,21.9
2017-12-15T11:42:16.852Z,21.9
2017-12-15T11:43:18.199Z,21.9
2017-12-15T11:44:20.097Z,21.9
2017-12-15T11:45:21.734Z,21.9
2017-12-15T11:46:23.353Z,21.9
2017-12-15T11:47:24.975Z,21.9
2017-12-15T11:48:26.602Z,21.9
2017-12-15T11:49:27.924Z,22
2017-12-15T11:50:29.544Z,21.9
2017-12-15T11:51:31.445Z,21.9
2017-12-15T11:52:32.532Z,21.9
2017-12-15T11:53:34.135Z,21.9
2017-12-15T11:54:35.756Z,21.9
2017-12-15T11:55:37.357Z,21.9
2017-12-15T11:56:38.975Z,22
2017-12-15T11:57:40.574Z,21.9
2017-12-15T11:58:41.643Z,21.9
2017-12-15T11:59:43.339Z,22
2017-12-15T12:00:45.238Z,21.9
2017-12-15T12:01:47.135Z,22
2017-12-15T12:02:48.762Z,21.9
2017-12-15T12:03:50.662Z,22
2017-12-15T12:04:52.623Z,22
2017-12-15T12:05:54.522Z,22
2017-12-15T12:06:56.190Z,21.9
2017-12-15T12:07:57.240Z,22
2017-12-15T12:08:58.286Z,22
2017-12-15T12:09:59.331Z,22
2017-12-15T12:11:00.949Z,22
2017-12-15T12:12:02.848Z,21.9
2017-12-15T12:13:04.749Z,22
2017-12-15T12:14:05.798Z,22
2017-12-15T12:15:07.423Z,21.9
2017-12-15T12:16:09.321Z,22
2017-12-15T12:17:11.217Z,21.9
2017-12-15T12:18:13.117Z,22
2017-12-15T12:19:14.459Z,22
2017-12-15T12:20:16.358Z,22
2017-12-15T12:21:17.979Z,22
2017-12-15T12:22:19.878Z,22
2017-12-15T12:23:21.780Z,22
2017-12-15T12:24:23.681Z,22
2017-12-15T12:25:25.579Z,22
2017-12-15T12:26:27.489Z,22.1
2017-12-15T12:27:29.107Z,22
2017-12-15T12:28:30.454Z,22.1
2017-12-15T12:29:31.801Z,22.1
2017-12-15T12:30:33.702Z,22
2017-12-15T12:31:35.026Z,22
2017-12-15T12:32:36.624Z,22.1
2017-12-15T12:33:38.225Z,22
2017-12-15T12:34:39.579Z,22
2017-12-15T12:35:40.622Z,22.1
2017-12-15T12:36:42.524Z,22
2017-12-15T12:37:44.150Z,22
2017-12-15T12:38:45.769Z,22
2017-12-15T12:39:47.112Z,22
2017-12-15T12:40:49.011Z,22.1
2017-12-15T12:41:50.353Z,22.1
2017-12-15T12:42:52.252Z,22.1
2017-12-15T12:43:53.851Z,22.1
2017-12-15T12:44:55.477Z,22.1
2017-12-15T12:45:56.518Z,22.1
2017-12-15T12:46:57.881Z,22
2017-12-15T12:47:59.488Z,22.1
2017-12-15T12:49:01.384Z,22.1
2017-12-15T12:50:02.431Z,22.1
2017-12-15T12:51:03.475Z,22.1
2017-12-15T12:52:04.547Z,22.1
2017-12-15T12:53:06.446Z,22.1
2017-12-15T12:54:07.790Z,22
2017-12-15T12:55:09.113Z,22
2017-12-15T12:56:10.716Z,22.1
2017-12-15T12:57:11.761Z,22.1
2017-12-15T12:58:13.669Z,22
2017-12-15T12:59:15.567Z,22.1
2017-12-15T13:00:16.908Z,22.1
2017-12-15T13:01:18.508Z,22
2017-12-15T13:02:20.409Z,22.1
2017-12-15T13:03:22.309Z,22.1
2017-12-15T13:04:24.206Z,22
2017-12-15T13:05:25.528Z,22.1
2017-12-15T13:06:27.425Z,22.2
2017-12-15T13:07:29.048Z,22.1
2017-12-15T13:08:30.390Z,22
2017-12-15T13:09:32.291Z,22.1
2017-12-15T13:10:33.917Z,22.1
2017-12-15T13:11:35.545Z,22.1
2017-12-15T13:12:37.164Z,22.1
2017-12-15T13:13:38.786Z,22.1
2017-12-15T13:14:40.110Z,22.1
2017-12-15T13:15:41.711Z,22.1
2017-12-15T13:16:43.610Z,22.1
2017-12-15T13:17:45.234Z,22.1
2017-12-15T13:18:46.829Z,22.1
2017-12-15T13:19:48.431Z,22.1
2017-12-15T13:20:50.053Z,22.1
2017-12-15T13:21:51.952Z,22.2
2017-12-15T13:22:53.276Z,22.1
2017-12-15T13:23:54.901Z,22.1
2017-12-15T13:24:56.800Z,22.2
2017-12-15T13:25:58.425Z,22.1
2017-12-15T13:26:59.469Z,22.2
2017-12-15T13:28:01.092Z,22.2
2017-12-15T13:29:02.712Z,22.2
2017-12-15T13:30:04.617Z,22.1
2017-12-15T13:31:06.235Z,22.1
2017-12-15T13:32:07.566Z,22.2
2017-12-15T13:33:09.514Z,22.2
2017-12-15T13:34:11.414Z,22.2
2017-12-15T13:35:13.037Z,22.1
2017-12-15T13:36:14.938Z,22.1
2017-12-15T13:37:16.559Z,22.1
2017-12-15T13:38:18.163Z,22.1
2017-12-15T13:39:19.501Z,22.1
2017-12-15T13:40:20.843Z,22.1
2017-12-15T13:41:22.444Z,22.1
2017-12-15T13:42:24.075Z,22.2
2017-12-15T13:43:25.974Z,22.2
2017-12-15T13:44:27.580Z,22.1
2017-12-15T13:45:28.899Z,22.2
2017-12-15T13:46:29.941Z,22.2
2017-12-15T13:47:31.284Z,22.1